Flight Track Log - Related Links

Times and Time Zones

All times are in EDT time to prevent confusion due to time zone crossing. See the SWA3321 flight status page for this flight to view local times or setup timezone preferences in your user account.

Time Position Orientation Groundspeed Altitude Reporting Facility
EDT Latitude Longitude Course Direction KTS MPH feet Rate Location/Type
Fri 11:31:30 28.4000 -81.3000 156° South 161 185 800  Level Orlando TRACON
Fri 11:32:18 28.3667 -81.2833 156° South 184 212 2,500 2,000 Climbing Orlando TRACON
Fri 11:33:24 28.3833 -81.2167 74° East 282 325 4,600 2,400 Climbing Orlando TRACON
Fri 11:35:08 28.5086 -81.2342 353° North 318 366 9,300 2,341 Climbing Jacksonville Center
Fri 11:36:08 28.5944 -81.2589 346° North 313 360 11,000 1,900 Climbing Jacksonville Center
Fri 11:37:08 28.6969 -81.2831 348° North 339 390 13,100 2,350 Climbing Jacksonville Center
Fri 11:38:08 28.7997 -81.3122 346° North 365 420 15,700 2,550 Climbing Jacksonville Center
Fri 11:39:08 28.9086 -81.3414 347° North 382 440 18,200 2,450 Climbing Jacksonville Center
Fri 11:40:08 29.0194 -81.3706 347° North 392 451 20,600 2,200 Climbing Jacksonville Center
Fri 11:41:08 29.1325 -81.3950 349° North 403 464 22,600 1,800 Climbing Jacksonville Center
Fri 11:42:08 29.2536 -81.4025 357° North 415 478 24,200 1,700 Climbing Jacksonville Center
Fri 11:43:08 29.3728 -81.4150 355° North 425 489 26,000 1,850 Climbing Jacksonville Center
Fri 11:44:08 29.5086 -81.4297 355° North 436 502 27,900 1,550 Climbing Jacksonville Center
Fri 11:45:08 29.6342 -81.4447 354° North 441 507 29,100 1,400 Climbing Jacksonville Center
Fri 11:46:08 29.7594 -81.4547 356° North 446 513 30,700 1,650 Climbing Jacksonville Center
Fri 11:47:08 29.8828 -81.4650 356° North 445 512 32,400 1,600 Climbing Jacksonville Center
Fri 11:48:08 30.0081 -81.4775 355° North 445 512 33,900 1,300 Climbing Jacksonville Center
Fri 11:49:08 30.1294 -81.4900 355° North 440 506 35,000 550 Climbing Jacksonville Center
Fri 11:50:08 30.2506 -81.5028 355° North 440 506 35,000  Level Jacksonville Center
Fri 11:51:08 30.3697 -81.5058 359° North 440 506 35,000  Level Jacksonville Center
Fri 11:52:08 30.4928 -81.4967 North 440 506 35,000  Level Jacksonville Center
Fri 11:53:08 30.6158 -81.4878 North 440 506 35,000  Level Jacksonville Center
Fri 11:54:08 30.7389 -81.4786 North 440 506 35,000  Level Jacksonville Center
Fri 11:55:08 30.8639 -81.4622 North 440 506 35,000  Level Jacksonville Center
Fri 11:56:08 30.9803 -81.4072 22° Northeast 445 512 35,000  Level Jacksonville Center
Fri 11:57:08 31.1006 -81.3494 22° Northeast 452 520 35,000  Level Jacksonville Center
Fri 11:58:08 31.2189 -81.2867 24° Northeast 457 526 35,000  Level Jacksonville Center
Fri 11:59:08 31.3372 -81.2289 23° Northeast 450 518 35,000  Level Jacksonville Center
Fri 12:00:08 31.4533 -81.1658 25° Northeast 458 527 35,000  Level Jacksonville Center
Fri 12:01:08 31.5736 -81.1053 23° Northeast 464 534 35,000  Level Jacksonville Center
Fri 12:02:08 31.6814 -81.0494 24° Northeast 464 534 35,000  Level Jacksonville Center
Fri 12:03:08 31.8097 -80.9808 24° Northeast 458 527 35,000  Level Jacksonville Center
Fri 12:04:08 31.9319 -80.9219 22° Northeast 458 527 35,000  Level Jacksonville Center
Fri 12:05:08 32.0397 -80.8658 24° Northeast 458 527 35,000  Level Jacksonville Center
Fri 12:06:08 32.1700 -80.7992 23° Northeast 463 533 35,000  Level Jacksonville Center
Fri 12:07:08 32.2881 -80.7350 25° Northeast 458 527 35,000  Level Jacksonville Center
Fri 12:08:08 32.4061 -80.6756 23° Northeast 459 528 35,000  Level Jacksonville Center
Fri 12:09:08 32.5258 -80.6111 24° Northeast 459 528 35,000  Level Jacksonville Center
Fri 12:10:08 32.6481 -80.5489 23° Northeast 459 528 35,000  Level Jacksonville Center
Fri 12:11:08 32.7658 -80.4864 24° Northeast 459 528 35,000  Level Jacksonville Center
Fri 12:12:08 32.8733 -80.4292 24° Northeast 459 528 35,000  Level Jacksonville Center
Fri 12:13:08 33.0094 -80.3586 23° Northeast 470 541 35,000 -350 Level Jacksonville Center
Fri 12:14:08 33.1294 -80.2956 24° Northeast 474 545 34,300 -875 Descending Jacksonville Center
Fri 12:16:00 33.3288 -80.1666 24° Northeast  Level FlightAware Approximate
Fri 12:17:08 33.4719 -80.1139 24° Northeast 456 525 31,500  Level Jacksonville Center
Fri 12:18:08 33.5917 -80.0503 24° Northeast 456 525 30,500 -950 Descending Jacksonville Center
Fri 12:19:08 33.7111 -79.9839 25° Northeast 461 531 29,600 -750 Descending Jacksonville Center
Fri 12:20:08 33.8325 -79.9175 24° Northeast 461 531 29,000 -300 Descending Jacksonville Center
Fri 12:21:08 33.9542 -79.8531 24° Northeast 466 536 29,000  Level Jacksonville Center
Fri 12:22:08 34.0756 -79.7839 25° Northeast 471 542 29,000  Level Jacksonville Center
Fri 12:23:08 34.1972 -79.7192 24° Northeast 476 548 29,000  Level Jacksonville Center
Fri 12:25:31 34.5047 -79.5536 24° Northeast 469 540 29,000  Level Washington Center
Fri 12:26:31 34.6239 -79.4811 27° Northeast 469 540 29,000  Level Washington Center
Fri 12:27:31 34.7514 -79.4139 23° Northeast 474 545 29,000  Level Washington Center
Fri 12:28:31 34.8722 -79.3489 24° Northeast 474 545 29,000  Level Washington Center
Fri 12:29:31 34.9956 -79.2783 25° Northeast 474 545 29,000  Level Washington Center
Fri 12:30:31 35.1206 -79.2106 24° Northeast 474 545 29,000  Level Washington Center
Fri 12:31:31 35.2439 -79.1422 24° Northeast 474 545 29,000  Level Washington Center
Fri 12:32:31 35.3583 -79.0786 24° Northeast 481 554 29,000  Level Washington Center
Fri 12:33:31 35.4897 -79.0053 24° Northeast 481 554 29,000  Level Washington Center
Fri 12:34:31 35.6128 -78.9364 24° Northeast 481 554 29,000  Level Washington Center
Fri 12:35:31 35.7400 -78.8650 24° Northeast 481 554 29,000  Level Washington Center
Fri 12:36:31 35.8608 -78.7906 27° Northeast 481 554 29,000  Level Washington Center
Fri 12:37:32 35.9761 -78.6978 33° Northeast 486 559 29,000  Level Washington Center
Fri 12:38:31 36.0892 -78.5994 35° Northeast 492 566 29,000  Level Washington Center
Fri 12:39:31 36.2000 -78.4981 36° Northeast 492 566 29,000  Level Washington Center
Fri 12:40:31 36.3131 -78.3992 35° Northeast 497 572 29,000  Level Washington Center
Fri 12:41:31 36.4258 -78.3000 35° Northeast 497 572 29,000  Level Washington Center
Fri 12:42:31 36.5153 -78.2203 36° Northeast 492 566 29,000  Level Washington Center
Fri 12:43:31 36.6367 -78.1106 36° Northeast 492 566 29,000  Level Washington Center
Fri 12:44:31 36.7472 -78.0103 36° Northeast 486 559 29,000  Level Washington Center
Fri 12:45:31 36.8578 -77.9075 37° Northeast 486 559 29,000  Level Washington Center
Fri 12:46:31 36.9503 -77.7569 52° Northeast 482 555 29,000  Level Washington Center
Fri 12:47:31 37.0319 -77.6186 53° Northeast 487 560 29,000  Level Washington Center
Fri 12:48:31 37.1114 -77.4853 53° Northeast 487 560 29,000  Level Washington Center
Fri 12:49:31 37.1925 -77.3464 54° Northeast 487 560 29,000  Level Washington Center
Fri 12:50:31 37.2739 -77.2100 53° Northeast 487 560 29,000  Level Washington Center
Fri 12:51:31 37.3567 -77.0969 47° Northeast 487 560 29,000  Level Washington Center
Fri 12:52:31 37.4850 -77.0000 31° Northeast 482 555 29,000  Level Washington Center
Fri 12:53:31 37.5922 -76.9206 30° Northeast 487 560 29,000  Level Washington Center
Fri 12:54:31 37.7081 -76.8333 31° Northeast 487 560 29,000  Level Washington Center
Fri 12:55:31 37.8278 -76.7458 30° Northeast 487 560 29,000  Level Washington Center
Fri 12:56:31 37.9475 -76.6556 31° Northeast 492 566 29,000  Level Washington Center
Fri 12:57:31 38.0669 -76.5675 30° Northeast 492 566 29,000  Level Washington Center
Fri 12:58:31 38.1867 -76.4767 31° Northeast 492 566 29,000  Level Washington Center
Fri 12:59:31 38.3019 -76.3881 31° Northeast 492 566 29,000  Level Washington Center
Fri 13:00:31 38.4153 -76.2781 37° Northeast 492 566 29,000  Level Washington Center
Fri 13:01:31 38.5219 -76.1833 35° Northeast 487 560 29,000  Level Washington Center
Fri 13:02:31 38.6497 -76.0675 35° Northeast 498 573 29,000  Level Washington Center
Fri 13:03:31 38.7606 -75.9617 37° Northeast 498 573 29,000  Level Washington Center
Fri 13:04:31 38.8714 -75.8556 37° Northeast 498 573 29,000  Level Washington Center
Fri 13:05:31 38.9842 -75.7544 35° Northeast 498 573 29,000  Level Washington Center
Fri 13:06:31 39.0947 -75.6506 36° Northeast 498 573 29,000  Level Washington Center
Fri 13:07:31 39.2031 -75.5433 37° Northeast 498 573 29,000  Level Washington Center
Fri 13:08:31 39.3175 -75.4414 35° Northeast 498 573 29,000  Level Washington Center
Fri 13:09:31 39.4300 -75.3389 35° Northeast 498 573 29,000  Level Washington Center
Fri 13:10:31 39.5422 -75.2364 35° Northeast 498 573 29,000  Level Washington Center
Fri 13:11:31 39.6544 -75.1333 35° Northeast 498 573 29,000  Level Washington Center
Fri 13:11:46 39.6814 -75.1111 32° Northeast 494 568 29,000  Level New York Center
Fri 13:12:47 39.7847 -75.0203 34° Northeast 507 583 29,000  Level New York Center
Fri 13:13:47 39.8967 -74.9214 34° Northeast 501 577 29,000  Level New York Center
Fri 13:14:47 40.0144 -74.8336 30° Northeast 501 577 29,000  Level New York Center
Fri 13:15:48 40.1447 -74.7381 29° Northeast 483 556 29,000  Level New York Center
Fri 13:16:47 40.2633 -74.6850 19° North 483 556 29,000  Level New York Center
Fri 13:17:47 40.3919 -74.6406 15° North 483 556 29,000  Level New York Center
Fri 13:19:25 40.6236 -74.5619 14° North 490 564 29,000  Level Boston Center
Fri 13:20:25 40.7536 -74.5169 15° North 490 564 29,000  Level Boston Center
Fri 13:21:26 40.8858 -74.4717 15° North 490 564 29,000  Level Boston Center
Fri 13:22:26 41.0178 -74.4236 15° North 490 564 29,000  Level Boston Center
Fri 13:23:25 41.1542 -74.3808 13° North 490 564 29,000  Level Boston Center
Fri 13:24:26 41.2819 -74.3322 16° North 490 564 29,000  Level Boston Center
Fri 13:25:27 41.4161 -74.2864 14° North 490 564 29,000  Level Boston Center
Fri 13:26:27 41.5483 -74.2403 15° North 496 571 29,000  Level Boston Center
Fri 13:27:25 41.6822 -74.1942 14° North 496 571 29,000  Level Boston Center
Fri 13:28:26 41.7997 -74.1528 15° North 489 563 29,000  Level Boston Center
Fri 13:29:26 41.9067 -74.1139 15° North 489 563 29,000  Level Boston Center
Fri 13:30:27 42.0314 -73.9772 39° Northeast 476 548 29,000  Level Boston Center
Fri 13:31:27 42.1044 -73.8139 59° Northeast 470 541 29,000 -661 Level Boston Center
Fri 13:32:25 42.1900 -73.6339 57° Northeast 504 580 27,700 -1,678 Descending Boston Center
Fri 13:33:25 42.2622 -73.4725 59° Northeast 504 580 25,700 -2,050 Descending Boston Center
Fri 13:34:25 42.3239 -73.3386 58° Northeast 496 571 23,600 -1,686 Descending Boston Center
Fri 13:35:26 42.4044 -73.1656 58° Northeast 486 559 22,300 -1,100 Descending Boston Center
Fri 13:36:25 42.4719 -73.0114 59° Northeast 481 554 21,400 -655 Descending Boston Center
Fri 13:37:25 42.5392 -72.8600 59° Northeast 469 540 21,000 -227 Descending Boston Center
Fri 13:38:37 42.6064 -72.7081 59° Northeast 469 540 20,900 -1,714 Descending Boston Center
Fri 13:39:38 42.6881 -72.5333 58° Northeast 463 533 17,200 -3,443 Descending Boston Center
Fri 13:40:39 42.7547 -72.3836 59° Northeast 463 533 13,900 -2,628 Descending Boston Center
Fri 13:41:39 42.8003 -72.2278 68° East 456 525 11,900 -1,983 Descending Boston Center
Fri 13:42:37 42.8106 -72.0919 84° East 412 474 10,000 -1,462 Descending Boston Center
Fri 13:43:38 42.8558 -71.9586 65° Northeast 336 387 9,000 -1,131 Descending Boston Center
Fri 13:44:39 42.9094 -71.8675 51° Northeast 341 392 7,700 -1,488 Descending Boston Center
Fri 13:45:39 42.9714 -71.7592 52° Northeast 331 381 6,000 -1,627 Descending Boston Center
Fri 13:46:37 43.0189 -71.6706 54° Northeast 319 367 4,500 -1,475 Descending Boston Center
Fri 13:47:37 43.0514 -71.5650 67° East 313 360 3,100 -950 Descending Boston Center
Fri 13:48:37 43.0406 -71.4914 101° East 237 273 2,600 -843 Descending Boston Center
Fri 13:49:38 42.9964 -71.4722 162° South 140 161 1,400 -950 Descending Boston Center
Fri 13:50:37 42.9650 -71.4528 156° South 140 161 700 -500 Descending Boston Center
Fri 13:51:38 42.9294 -71.4306 155° Southeast 140 161 400 9,984 Descending Boston Center
Fri 13:52:39 42.8917 -71.4114 160° South 140 161 21,000 10,387 Climbing Boston Center
Fri 13:53:37 42.8561 -71.3892 155° Southeast 140 161 21,000  Level Boston Center
Fri 13:54:37 42.8183 -71.3703 160° South 140 161 21,000  Level Boston Center
Fri 13:56:00 42.9167 -71.4333 316° Northwest  Level FlightAware Approximate
Fri 14:03:00 42.9328 -71.4358 316° Northwest  Level Estimated
Fri 14:04:00 42.9328 -71.4358 316° Northwest  Level Estimated
Fri 14:05:00 42.9328 -71.4358 316° Northwest  Level Estimated
Fri 14:06:00 42.9328 -71.4358 316° Northwest  Level Estimated
Fri 14:07:00 42.9328 -71.4358 316° Northwest  Level Estimated
Fri 14:08:00 42.9328 -71.4358 316° Northwest  Level Estimated

Login

Don't have an account? Register now (free) for customized features, flight alerts, and more!